Time;durP1;ratioP1;P1;durP2;ratioP2;P2;SDS_P1;SDS_P2;PMS_P1;PMS_P2;Temp;Humidity;BMP_temperature;BMP_pressure;BME280_temperature;BME280_humidity;BME280_pressure;Samples;Min_cycle;Max_cycle;Signal;HPM_P1;HPM_P2
2022/03/27 00:00:35;;;;;;;9.98;7.93;;;;;;;7.63;86.80;103151.22;5023552;28;20069;-80
2022/03/27 00:03:00;;;;;;;10.63;8.10;;;;;;;7.56;86.62;103136.78;5011391;28;20601;-81
2022/03/27 00:05:26;;;;;;;10.23;8.27;;;;;;;7.49;86.71;103137.88;5018388;28;20037;-81
2022/03/27 00:07:51;;;;;;;11.07;8.63;;;;;;;7.48;86.45;103146.53;5009462;28;20044;-80
2022/03/27 00:10:16;;;;;;;11.52;9.00;;;;;;;7.51;86.74;103141.25;4992809;28;20046;-81
2022/03/27 00:12:42;;;;;;;12.18;9.23;;;;;;;7.47;87.46;103139.66;5009973;28;20033;-81
2022/03/27 00:15:09;;;;;;;11.68;8.63;;;;;;;7.40;87.17;103139.88;5026404;28;20033;-81
2022/03/27 00:17:34;;;;;;;12.85;9.05;;;;;;;7.37;87.09;103147.69;5018227;28;20076;-81
2022/03/27 00:20:05;;;;;;;11.05;9.45;;;;;;;7.36;87.47;103158.91;5022292;28;20458;-81
2022/03/27 00:22:30;;;;;;;12.05;10.30;;;;;;;7.30;88.30;103138.44;4991435;28;20109;-81
2022/03/27 00:24:57;;;;;;;13.10;10.65;;;;;;;7.37;88.78;103145.09;5010771;28;20033;-81
2022/03/27 00:27:22;;;;;;;12.75;10.70;;;;;;;7.36;88.79;103153.75;5009630;28;20069;-81
2022/03/27 00:29:50;;;;;;;12.70;11.30;;;;;;;7.25;89.77;103140.31;5016530;28;20029;-81
2022/03/27 00:32:15;;;;;;;12.77;11.38;;;;;;;7.28;90.04;103136.78;5009251;28;20029;-81
2022/03/27 00:34:40;;;;;;;13.55;11.30;;;;;;;7.30;89.79;103143.63;5010505;28;20529;-81
2022/03/27 00:37:06;;;;;;;13.65;11.50;;;;;;;7.26;89.91;103136.84;4990621;28;20041;-82
2022/03/27 00:39:31;;;;;;;13.15;11.70;;;;;;;7.28;90.67;103139.38;5011300;28;20030;-81
2022/03/27 00:41:57;;;;;;;14.13;11.77;;;;;;;7.26;89.80;103136.84;5012212;28;20053;-81
2022/03/27 00:44:22;;;;;;;14.60;12.40;;;;;;;7.25;90.62;103145.50;5009184;28;20080;-81
2022/03/27 00:46:47;;;;;;;13.23;11.82;;;;;;;7.21;90.67;103133.56;5008422;28;20069;-81
2022/03/27 00:49:13;;;;;;;13.93;12.48;;;;;;;7.25;90.65;103137.75;5024538;28;20481;-80
2022/03/27 00:51:38;;;;;;;14.63;12.43;;;;;;;7.24;90.36;103138.66;5009894;28;20044;-82
2022/03/27 00:54:04;;;;;;;13.88;11.90;;;;;;;7.24;89.88;103133.47;5009035;28;20105;-81
2022/03/27 00:56:29;;;;;;;12.80;11.50;;;;;;;7.25;91.08;103135.16;4999051;28;20108;-81
2022/03/27 00:58:55;;;;;;;12.55;11.25;;;;;;;7.25;91.28;103142.91;5008894;28;20377;-81
2022/03/27 01:01:37;;;;;;;12.43;11.13;;;;;;;7.24;91.11;103133.47;5014284;28;20029;-81
2022/03/27 01:04:05;;;;;;;12.68;10.93;;;;;;;7.19;90.93;103138.78;5028599;28;20536;-81
2022/03/27 01:06:35;;;;;;;12.35;11.05;;;;;;;7.18;91.30;103141.41;5026797;28;20139;-81
2022/03/27 01:11:46;;;;;;;12.75;10.82;;;;;;;7.28;90.88;103140.22;5027774;28;20136;-81
2022/03/27 01:14:13;;;;;;;13.15;10.77;;;;;;;7.32;90.41;103140.97;5023776;28;20268;-81
2022/03/27 01:16:42;;;;;;;12.70;11.27;;;;;;;7.35;91.21;103141.75;5021320;28;20025;-81
2022/03/27 01:19:10;;;;;;;14.38;11.30;;;;;;;7.34;90.45;103145.22;5004321;28;20057;-81
2022/03/27 01:21:38;;;;;;;13.48;11.15;;;;;;;7.34;90.71;103145.22;5027367;28;20079;-81
2022/03/27 01:24:04;;;;;;;12.40;11.20;;;;;;;7.35;90.91;103146.91;5010042;28;20025;-81
2022/03/27 01:26:30;;;;;;;12.07;10.77;;;;;;;7.37;90.32;103139.94;5021738;28;20065;-81
2022/03/27 01:28:56;;;;;;;12.57;11.27;;;;;;;7.45;90.27;103143.16;5023280;28;20076;-80
2022/03/27 01:31:23;;;;;;;13.40;11.90;;;;;;;7.40;90.36;103145.03;5017029;28;20106;-81
2022/03/27 01:33:48;;;;;;;13.80;12.40;;;;;;;7.33;90.54;103128.00;4995407;28;20105;-81
2022/03/27 01:36:34;;;;;;;13.30;11.90;;;;;;;7.32;90.92;103126.34;5014195;28;20033;-81
2022/03/27 01:38:59;;;;;;;13.60;12.15;;;;;;;7.34;90.48;103119.41;5027669;28;20507;-81
2022/03/27 01:41:25;;;;;;;14.80;12.80;;;;;;;7.37;90.39;103121.88;4998374;28;20497;-81
2022/03/27 01:43:50;;;;;;;14.18;12.75;;;;;;;7.51;90.02;103141.25;5007643;28;20469;-81
2022/03/27 01:46:16;;;;;;;15.60;14.00;;;;;;;7.48;89.67;103137.03;5018987;28;20539;-80
2022/03/27 01:48:42;;;;;;;15.52;13.95;;;;;;;7.45;89.45;103122.50;5009520;28;20133;-81
2022/03/27 01:51:07;;;;;;;16.45;14.82;;;;;;;7.50;89.81;103129.22;5016995;28;20466;-81
2022/03/27 01:53:36;;;;;;;16.60;14.98;;;;;;;7.50;89.87;103139.56;5007881;28;20034;-81
2022/03/27 01:56:01;;;;;;;16.27;14.57;;;;;;;7.55;89.34;103132.50;4995758;28;20033;-80
2022/03/27 01:58:27;;;;;;;15.52;13.93;;;;;;;7.50;89.42;103129.22;4988791;28;20041;-80
2022/03/27 02:00:53;;;;;;;16.40;14.70;;;;;;;7.52;89.38;103123.13;5008734;28;20398;-81
2022/03/27 02:03:18;;;;;;;17.17;15.05;;;;;;;7.51;88.67;103125.75;5016535;28;20073;-81
2022/03/27 02:05:44;;;;;;;17.08;15.30;;;;;;;7.52;89.38;103136.06;5026996;28;20825;-81
2022/03/27 02:08:11;;;;;;;16.35;14.65;;;;;;;7.44;88.89;103125.94;5027177;28;20060;-81
2022/03/27 02:10:37;;;;;;;15.77;14.18;;;;;;;7.42;88.88;103127.75;5008765;28;20071;-81
2022/03/27 02:13:03;;;;;;;16.13;14.43;;;;;;;7.40;89.44;103129.53;5019945;28;20030;-80
2022/03/27 02:15:28;;;;;;;15.32;13.73;;;;;;;7.41;89.64;103131.22;5008500;28;20340;-81
2022/03/27 02:17:54;;;;;;;16.02;14.32;;;;;;;7.36;89.71;103133.09;5024994;28;20132;-80
2022/03/27 02:20:19;;;;;;;16.58;14.88;;;;;;;7.37;89.28;103134.78;5026731;28;20037;-81
2022/03/27 02:22:44;;;;;;;16.15;14.55;;;;;;;7.36;89.17;103138.25;5023419;28;20026;-81
2022/03/27 02:25:10;;;;;;;17.08;14.73;;;;;;;7.40;89.41;103123.53;5026294;28;20079;-82
2022/03/27 02:27:35;;;;;;;15.90;14.30;;;;;;;7.30;89.13;103117.81;5023970;28;20415;-81
2022/03/27 02:30:01;;;;;;;16.40;14.75;;;;;;;7.30;89.64;103125.53;5006961;28;20519;-81
2022/03/27 02:32:26;;;;;;;15.75;14.15;;;;;;;7.22;89.93;103118.91;5009532;28;20113;-80
2022/03/27 02:34:51;;;;;;;16.52;14.85;;;;;;;7.24;89.79;103118.00;5027053;28;20457;-81
2022/03/27 02:37:16;;;;;;;17.33;15.52;;;;;;;7.19;90.37;103122.44;5006868;28;20044;-81
2022/03/27 02:39:44;;;;;;;16.77;15.07;;;;;;;7.21;89.70;103127.56;4989109;28;20375;-81
2022/03/27 02:42:09;;;;;;;16.60;14.90;;;;;;;7.26;89.65;103134.25;5006476;28;20373;-81
2022/03/27 02:44:35;;;;;;;17.30;15.38;;;;;;;7.25;89.72;103135.16;5025564;28;20473;-81
2022/03/27 02:47:00;;;;;;;17.83;15.73;;;;;;;7.21;89.25;103130.97;5010909;28;20052;-81
2022/03/27 02:49:25;;;;;;;16.75;15.05;;;;;;;7.23;89.38;103142.13;5007016;28;20049;-82
2022/03/27 02:51:51;;;;;;;16.73;14.98;;;;;;;7.20;89.32;103137.03;5006847;28;20030;-81
2022/03/27 02:54:16;;;;;;;17.00;15.30;;;;;;;7.21;88.59;103128.41;5022958;28;20044;-81
2022/03/27 02:56:42;;;;;;;18.05;16.23;;;;;;;7.18;88.86;103131.09;5019049;28;20473;-82
2022/03/27 02:59:07;;;;;;;17.95;16.13;;;;;;;7.14;88.47;103137.22;5006860;28;20033;-81
2022/03/27 03:01:33;;;;;;;19.38;17.27;;;;;;;7.14;89.19;103137.22;5006837;28;20025;-82
2022/03/27 03:04:01;;;;;;;20.10;18.02;;;;;;;7.10;88.40;103122.72;5006899;28;20520;-81
2022/03/27 03:06:28;;;;;;;20.48;18.27;;;;;;;7.15;88.82;103128.59;5018270;28;20150;-81
2022/03/27 03:08:53;;;;;;;19.15;17.20;;;;;;;7.16;89.18;103130.28;5026414;28;20051;-81
2022/03/27 03:11:20;;;;;;;20.52;18.42;;;;;;;7.13;89.54;103120.06;5001518;28;20046;-81
2022/03/27 03:13:47;;;;;;;20.67;18.58;;;;;;;7.10;89.80;103125.28;5011232;28;20025;-81
2022/03/27 03:16:14;;;;;;;22.23;19.92;;;;;;;7.05;89.27;103122.00;5016417;28;20095;-81
2022/03/27 03:18:41;;;;;;;21.08;18.88;;;;;;;7.03;89.64;103118.63;5030413;28;20049;-81
2022/03/27 03:21:07;;;;;;;20.63;18.50;;;;;;;7.05;89.26;103119.41;5010639;28;20030;-80
2022/03/27 03:23:32;;;;;;;21.08;18.92;;;;;;;7.07;89.54;103115.94;5018263;28;20112;-81
2022/03/27 03:25:58;;;;;;;21.85;19.50;;;;;;;7.03;89.34;103128.97;5029086;28;20468;-81
2022/03/27 03:28:23;;;;;;;21.60;19.30;;;;;;;7.03;89.51;103118.63;5001620;28;20041;-81
2022/03/27 03:30:49;;;;;;;22.45;20.13;;;;;;;6.99;89.85;103111.88;5016082;28;20021;-81
2022/03/27 03:33:14;;;;;;;21.83;19.52;;;;;;;7.07;89.39;103115.09;5030254;28;20029;-81
2022/03/27 03:35:41;;;;;;;22.50;20.17;;;;;;;6.99;89.58;103117.03;5014427;28;20044;-80
2022/03/27 03:38:06;;;;;;;21.33;19.13;;;;;;;6.92;89.75;103106.06;5010318;28;20409;-81
2022/03/27 03:40:31;;;;;;;21.13;18.92;;;;;;;6.89;89.92;103106.16;5013308;28;20026;-80
2022/03/27 03:42:57;;;;;;;22.58;19.92;;;;;;;6.88;90.44;103115.63;5029819;28;20037;-81
2022/03/27 03:45:22;;;;;;;22.95;20.58;;;;;;;6.89;90.32;103112.16;5027239;28;20033;-81
2022/03/27 03:47:48;;;;;;;23.55;20.33;;;;;;;6.95;89.74;103120.63;5010144;28;20373;-81
2022/03/27 03:50:13;;;;;;;23.70;21.20;;;;;;;7.00;90.33;103118.75;5010351;28;20080;-80
2022/03/27 03:52:39;;;;;;;24.05;21.45;;;;;;;6.93;90.15;103108.56;5009888;28;20029;-80
2022/03/27 03:55:08;;;;;;;22.95;20.63;;;;;;;6.95;90.54;103105.13;5010036;28;20045;-81
2022/03/27 03:57:33;;;;;;;;;;;;;;;7.07;89.33;103110.75;5029570;28;20469;-80
2022/03/27 03:59:59;;;;;;;23.33;20.93;;;;;;;6.88;90.23;103100.16;5010056;28;19924;-81
2022/03/27 04:02:24;;;;;;;22.55;20.20;;;;;;;7.01;89.76;103110.09;5026573;28;20283;-81
2022/03/27 04:04:50;;;;;;;21.60;19.45;;;;;;;6.99;89.44;103104.13;5011386;28;20029;-79
2022/03/27 04:07:15;;;;;;;21.48;19.25;;;;;;;7.01;89.07;103110.09;4994774;28;20038;-81
2022/03/27 04:09:40;;;;;;;21.23;18.92;;;;;;;6.90;89.81;103113.84;5009615;28;20486;-81
2022/03/27 04:12:06;;;;;;;21.05;18.80;;;;;;;6.87;89.83;103113.91;5009743;28;20029;-80
2022/03/27 04:14:36;;;;;;;20.58;18.35;;;;;;;6.86;90.21;103121.72;4992036;28;20529;-81
2022/03/27 04:17:04;;;;;;;20.58;18.38;;;;;;;6.84;90.29;103119.19;5020575;28;20036;-81
2022/03/27 04:19:30;;;;;;;20.20;17.65;;;;;;;6.83;90.07;103122.66;5010959;28;20057;-81
2022/03/27 04:21:55;;;;;;;20.08;17.98;;;;;;;6.71;89.49;103102.38;4996547;28;20076;-81
2022/03/27 04:24:21;;;;;;;19.73;17.48;;;;;;;6.83;89.43;103120.09;5006254;28;20037;-81
2022/03/27 04:26:46;;;;;;;19.73;17.73;;;;;;;6.80;89.62;103112.41;5025121;28;20500;-81
2022/03/27 04:29:12;;;;;;;21.42;18.38;;;;;;;6.78;89.45;103124.53;5010998;28;20029;-80
2022/03/27 04:31:41;;;;;;;19.85;17.75;;;;;;;6.66;89.65;103109.41;5013694;28;20533;-81
2022/03/27 04:34:07;;;;;;;20.10;18.00;;;;;;;6.71;90.17;103117.84;5029025;28;20057;-81
2022/03/27 04:36:33;;;;;;;19.05;17.05;;;;;;;6.75;89.48;103129.75;5028905;28;20329;-81
2022/03/27 04:38:58;;;;;;;19.80;17.50;;;;;;;6.71;90.02;103128.19;5028866;28;20812;-80
2022/03/27 04:41:24;;;;;;;20.65;18.52;;;;;;;6.72;89.31;103123.88;5010440;28;20026;-81
2022/03/27 04:43:49;;;;;;;21.67;19.33;;;;;;;6.67;89.50;103120.56;5009107;28;20042;-81
2022/03/27 04:46:15;;;;;;;22.25;19.65;;;;;;;6.61;89.44;103116.44;5009329;28;20030;-80
2022/03/27 04:48:42;;;;;;;22.48;19.05;;;;;;;6.67;89.88;103131.72;4991317;28;20057;-81
2022/03/27 04:51:07;;;;;;;22.77;19.48;;;;;;;6.65;89.73;103124.03;5028748;28;20488;-81
2022/03/27 04:53:33;;;;;;;22.35;19.25;;;;;;;6.60;89.44;103125.91;5028216;28;20476;-81
2022/03/27 04:55:58;;;;;;;21.95;19.33;;;;;;;6.65;89.29;103133.47;5028606;28;20065;-81
2022/03/27 04:58:24;;;;;;;21.08;18.73;;;;;;;6.59;89.29;103133.66;5012873;28;20481;-81
2022/03/27 05:00:49;;;;;;;21.73;18.20;;;;;;;6.50;89.06;103119.28;5001498;28;20159;-81
2022/03/27 05:03:15;;;;;;;20.55;17.48;;;;;;;6.52;89.44;103121.81;4996714;28;20057;-81
2022/03/27 05:05:41;;;;;;;20.65;18.23;;;;;;;6.55;89.65;103132.06;5008697;28;20049;-81
2022/03/27 05:08:07;;;;;;;20.00;16.55;;;;;;;6.50;89.06;103133.94;5019859;28;20057;-80
2022/03/27 05:10:33;;;;;;;19.55;15.93;;;;;;;6.46;89.08;103128.00;5012680;28;20026;-80
2022/03/27 05:12:58;;;;;;;20.17;16.38;;;;;;;6.38;89.54;103128.22;5008781;28;20029;-80
2022/03/27 05:15:23;;;;;;;19.58;15.48;;;;;;;6.32;88.66;103128.38;5008368;28;20080;-81
2022/03/27 05:17:55;;;;;;;19.25;16.10;;;;;;;6.34;88.67;103134.31;5011486;28;20402;-81
2022/03/27 05:20:21;;;;;;;18.92;14.98;;;;;;;6.28;88.15;103137.06;4996630;28;20034;-80
2022/03/27 05:22:47;;;;;;;18.45;14.60;;;;;;;6.27;88.43;103142.28;5010687;28;20030;-80
2022/03/27 05:25:15;;;;;;;21.63;16.35;;;;;;;6.26;87.93;103140.59;5009605;28;20022;-80
2022/03/27 05:27:53;;;;;;;21.30;16.17;;;;;;;6.28;88.06;103129.34;5027480;28;20473;-80
2022/03/27 05:30:21;;;;;;;21.50;17.33;;;;;;;6.30;88.06;103145.59;4997225;28;20045;-80
2022/03/27 05:32:46;;;;;;;23.30;18.10;;;;;;;6.28;87.59;103139.66;5007796;28;20030;-80
2022/03/27 05:35:12;;;;;;;22.63;17.70;;;;;;;6.23;88.18;103138.91;5007925;28;20083;-80
2022/03/27 05:37:38;;;;;;;22.63;17.77;;;;;;;6.23;88.63;103140.66;5015539;28;20103;-81
2022/03/27 05:40:06;;;;;;;22.73;17.50;;;;;;;6.23;88.23;103144.06;5005389;28;20700;-80
2022/03/27 05:42:31;;;;;;;22.25;17.38;;;;;;;6.18;88.15;103143.34;4990391;28;20445;-81
2022/03/27 05:44:57;;;;;;;22.50;17.42;;;;;;;6.23;88.07;103136.34;5007889;28;20471;-81
2022/03/27 05:47:22;;;;;;;23.98;17.27;;;;;;;6.24;87.82;103148.34;5007258;28;20042;-80
2022/03/27 05:49:48;;;;;;;24.33;18.27;;;;;;;6.23;88.23;103138.91;5024924;28;20358;-80
2022/03/27 05:52:16;;;;;;;24.25;18.45;;;;;;;6.19;87.68;103145.03;4990220;28;20125;-80
2022/03/27 05:54:42;;;;;;;26.50;18.92;;;;;;;6.18;88.31;103153.66;5007841;28;20466;-80
2022/03/27 05:57:07;;;;;;;27.38;20.08;;;;;;;6.18;88.16;103153.66;5023962;28;20048;-80
2022/03/27 05:59:32;;;;;;;25.42;19.02;;;;;;;6.13;88.48;103155.50;4994689;28;20513;-80
2022/03/27 06:01:58;;;;;;;26.83;19.05;;;;;;;6.11;88.24;103152.13;5023745;28;20477;-79
2022/03/27 06:04:23;;;;;;;25.50;18.27;;;;;;;6.15;88.20;103158.91;4989592;28;20531;-80
2022/03/27 06:06:48;;;;;;;25.88;18.15;;;;;;;6.11;87.58;103152.13;5023376;28;20083;-80
2022/03/27 06:09:14;;;;;;;26.10;17.17;;;;;;;6.12;88.00;103148.66;5008066;28;20026;-80
2022/03/27 06:11:39;;;;;;;25.13;17.88;;;;;;;6.24;87.53;103168.94;5009132;28;20036;-80
2022/03/27 06:14:04;;;;;;;25.05;17.45;;;;;;;6.21;87.83;103169.06;5006134;28;20472;-79
2022/03/27 06:16:30;;;;;;;25.30;18.27;;;;;;;6.21;87.11;103179.34;5006030;28;20030;-80
2022/03/27 06:18:55;;;;;;;25.00;17.23;;;;;;;6.13;87.41;103160.66;5011412;28;20042;-80
2022/03/27 06:21:21;;;;;;;25.65;17.65;;;;;;;6.15;86.83;103171.78;5006072;28;20537;-80
2022/03/27 06:23:46;;;;;;;26.52;18.70;;;;;;;6.13;87.07;103181.25;5009762;28;20034;-80
2022/03/27 06:26:11;;;;;;;27.10;18.20;;;;;;;6.17;87.57;103172.56;5005977;28;20028;-80
2022/03/27 06:28:37;;;;;;;29.65;18.98;;;;;;;6.12;87.34;103170.13;4989202;28;20042;-80
2022/03/27 06:31:02;;;;;;;26.33;18.27;;;;;;;6.06;86.67;103169.44;5005538;28;20208;-80
2022/03/27 06:33:27;;;;;;;28.08;19.40;;;;;;;6.04;87.09;103178.94;5006244;28;20061;-80
2022/03/27 06:35:53;;;;;;;27.40;17.90;;;;;;;6.00;86.55;103174.72;4974476;28;20057;-80
2022/03/27 06:38:18;;;;;;;26.33;18.08;;;;;;;6.01;87.40;103181.56;5005584;28;20033;-80
2022/03/27 06:40:44;;;;;;;27.90;18.48;;;;;;;6.01;86.58;103177.25;5005045;28;20105;-80
2022/03/27 06:43:09;;;;;;;26.58;18.30;;;;;;;5.94;86.05;103180.88;5006632;28;20030;-80
2022/03/27 06:45:35;;;;;;;28.63;18.88;;;;;;;5.89;86.82;103181.84;4992638;28;20470;-80
2022/03/27 06:48:00;;;;;;;28.23;19.20;;;;;;;5.94;86.99;103180.03;5008634;28;20112;-80
2022/03/27 06:50:26;;;;;;;29.55;20.05;;;;;;;5.94;86.92;103170.56;5004871;28;20029;-80
2022/03/27 06:52:54;;;;;;;27.38;19.80;;;;;;;5.98;86.44;103179.09;5005676;28;20397;-80
2022/03/27 06:55:20;;;;;;;28.70;19.15;;;;;;;5.93;85.85;103168.03;5005991;28;20068;-80
2022/03/27 06:57:45;;;;;;;29.38;19.92;;;;;;;6.00;86.27;103174.72;4984529;28;20026;-80
2022/03/27 07:03:06;;;;;;;27.83;18.88;;;;;;;6.08;86.18;103183.13;5013991;28;20044;-81
2022/03/27 07:05:35;;;;;;;27.33;19.02;;;;;;;6.07;86.11;103186.56;5004817;28;20059;-80
2022/03/27 07:08:01;;;;;;;26.17;18.75;;;;;;;6.07;86.11;103181.41;5014188;28;20469;-80
2022/03/27 07:10:27;;;;;;;26.13;18.70;;;;;;;6.09;86.05;103184.81;4988657;28;20062;-81
2022/03/27 07:12:52;;;;;;;26.30;18.10;;;;;;;5.99;85.49;103167.91;5005844;28;20057;-81
2022/03/27 07:15:18;;;;;;;23.95;17.25;;;;;;;5.96;85.36;103170.53;5008895;28;20033;-80
2022/03/27 07:17:48;;;;;;;24.98;18.67;;;;;;;6.06;85.64;103175.41;5021725;28;20095;-81
2022/03/27 07:20:19;;;;;;;26.90;19.05;;;;;;;6.11;85.35;103167.59;5005605;28;20037;-81
2022/03/27 07:22:45;;;;;;;23.00;16.13;;;;;;;6.17;83.53;103167.44;5008540;28;20041;-81
2022/03/27 07:25:11;;;;;;;20.50;15.82;;;;;;;6.22;83.15;103169.91;5025370;28;20029;-82
2022/03/27 07:27:37;;;;;;;19.70;16.08;;;;;;;6.26;82.57;103176.66;5023787;28;20917;-81
2022/03/27 07:30:05;;;;;;;19.50;15.25;;;;;;;6.26;82.07;103177.50;5007795;28;20033;-80
2022/03/27 07:32:30;;;;;;;19.00;14.93;;;;;;;6.23;82.20;103172.41;5015333;28;20026;-81
2022/03/27 07:34:56;;;;;;;19.48;16.00;;;;;;;6.20;82.20;103177.66;5006661;28;20386;-82
2022/03/27 07:37:21;;;;;;;19.52;15.70;;;;;;;6.23;82.03;103175.00;5004545;28;20112;-81
2022/03/27 07:39:47;;;;;;;20.27;16.48;;;;;;;6.30;81.71;103183.41;5000116;28;20040;-80
2022/03/27 07:42:13;;;;;;;21.30;16.77;;;;;;;6.26;81.72;103172.34;5025822;28;20355;-81
2022/03/27 07:44:38;;;;;;;18.30;15.45;;;;;;;6.31;82.14;103173.09;4987227;28;20054;-81
2022/03/27 07:47:04;;;;;;;20.42;15.73;;;;;;;6.35;82.00;103169.53;5006290;28;20069;-81
2022/03/27 07:49:29;;;;;;;18.58;15.73;;;;;;;6.35;81.21;103166.94;4997452;28;20120;-80
2022/03/27 07:51:55;;;;;;;20.52;15.82;;;;;;;6.46;80.85;103176.13;5018959;28;20030;-82
2022/03/27 07:54:20;;;;;;;17.77;15.35;;;;;;;6.52;79.98;103183.69;5006625;28;20037;-80
2022/03/27 07:56:46;;;;;;;19.98;15.52;;;;;;;6.48;79.62;103182.97;4992664;28;20062;-81
2022/03/27 07:59:11;;;;;;;18.90;15.30;;;;;;;6.53;79.65;103180.22;5016019;28;20389;-80
2022/03/27 08:01:36;;;;;;;18.70;15.45;;;;;;;6.54;79.33;103181.94;5022655;28;20057;-80
2022/03/27 08:04:02;;;;;;;20.58;16.40;;;;;;;6.54;80.11;103167.31;5010689;28;20116;-82
2022/03/27 08:06:29;;;;;;;19.02;16.02;;;;;;;6.62;80.26;103174.84;4992300;28;20092;-82
2022/03/27 08:08:55;;;;;;;20.05;16.20;;;;;;;6.68;80.71;103184.13;4998773;28;20021;-82
2022/03/27 08:11:23;;;;;;;20.80;15.90;;;;;;;6.73;79.83;103174.53;5006633;28;20064;-81
2022/03/27 08:13:48;;;;;;;19.70;16.08;;;;;;;6.87;80.73;103172.41;5009931;28;20127;-81
2022/03/27 08:16:14;;;;;;;19.55;15.38;;;;;;;6.85;79.06;103172.47;5010704;28;20112;-81
2022/03/27 08:18:39;;;;;;;19.85;16.27;;;;;;;6.98;79.48;103177.25;4992664;28;20636;-82
2022/03/27 08:21:05;;;;;;;21.95;15.90;;;;;;;6.99;77.64;103173.78;5028150;28;20040;-82
2022/03/27 08:23:30;;;;;;;19.88;15.55;;;;;;;6.93;77.59;103165.34;5028261;28;20657;-81
2022/03/27 08:28:40;;;;;;;18.77;15.40;;;;;;;7.16;77.51;103176.72;5011625;28;20409;-82
2022/03/27 08:31:05;;;;;;;19.92;15.70;;;;;;;7.22;77.34;103179.13;5010993;28;20386;-82
2022/03/27 08:33:30;;;;;;;19.95;15.38;;;;;;;7.28;76.93;103181.50;5009470;28;20030;-82
2022/03/27 08:35:57;;;;;;;19.40;15.93;;;;;;;7.22;76.93;103165.38;5008535;28;20069;-82
2022/03/27 08:38:23;;;;;;;19.65;15.85;;;;;;;7.40;76.97;103176.00;5008941;28;20441;-82
2022/03/27 08:40:49;;;;;;;20.10;15.50;;;;;;;7.52;76.72;103184.28;4999570;28;20485;-82
2022/03/27 08:43:16;;;;;;;21.13;16.17;;;;;;;7.58;76.33;103178.91;5019197;28;20657;-82
2022/03/27 08:45:44;;;;;;;23.00;16.13;;;;;;;7.70;76.65;103183.69;5023288;28;20021;-82
2022/03/27 08:48:10;;;;;;;24.17;17.40;;;;;;;7.78;76.69;103181.69;5014299;28;20120;-81
2022/03/27 08:50:59;;;;;;;20.40;15.55;;;;;;;7.79;75.75;103178.22;4998905;28;20393;-81
2022/03/27 08:53:38;;;;;;;20.55;15.77;;;;;;;7.88;75.27;103187.41;5008367;28;20052;-81
2022/03/27 08:56:07;;;;;;;22.70;16.95;;;;;;;7.92;75.17;103174.34;5015973;28;20064;-81
2022/03/27 08:58:40;;;;;;;21.52;16.42;;;;;;;7.89;74.95;103166.69;5028928;28;20033;-82
2022/03/27 09:01:07;;;;;;;20.58;15.95;;;;;;;8.03;75.18;103175.72;5028263;28;20492;-82
2022/03/27 09:03:33;;;;;;;20.15;15.85;;;;;;;8.03;73.81;103171.41;4996386;28;20033;-82
2022/03/27 09:06:01;;;;;;;18.77;15.52;;;;;;;8.10;74.59;103182.41;5010190;28;20038;-82
2022/03/27 09:08:29;;;;;;;19.77;15.73;;;;;;;8.12;74.01;103171.09;5027297;28;20044;-82
2022/03/27 09:10:55;;;;;;;21.25;16.13;;;;;;;8.31;74.29;103176.47;5021832;28;20026;-81
2022/03/27 09:13:21;;;;;;;19.50;15.27;;;;;;;8.50;74.39;103177.56;5008656;28;20064;-82
2022/03/27 09:15:58;;;;;;;20.67;15.30;;;;;;;8.49;72.75;103165.53;5008656;28;20467;-81
2022/03/27 09:18:23;;;;;;;20.35;15.52;;;;;;;8.58;72.38;103163.53;5007014;28;20046;-82
2022/03/27 09:20:57;;;;;;;19.63;15.60;;;;;;;8.65;72.81;103159.81;5007055;28;20022;-85
2022/03/27 09:23:28;;;;;;;21.20;16.00;;;;;;;8.64;71.93;103148.63;5016040;28;20168;-83
2022/03/27 09:26:09;;;;;;;20.63;16.60;;;;;;;8.83;71.82;103164.34;5009520;28;20032;-84
2022/03/27 09:28:44;;;;;;;20.75;14.65;;;;;;;8.93;71.49;103160.47;5028168;28;20335;-81
2022/03/27 09:31:13;;;;;;;20.90;15.38;;;;;;;8.96;69.74;103168.16;5023457;28;20473;-84
2022/03/27 09:33:59;;;;;;;20.20;15.65;;;;;;;9.08;69.64;103164.25;5008757;28;20048;-84
2022/03/27 09:36:32;;;;;;;21.20;14.80;;;;;;;9.18;69.55;103164.75;5009295;28;20034;-85
2022/03/27 09:39:18;;;;;;;21.42;15.60;;;;;;;9.16;69.22;103135.47;5007300;28;20022;-85
2022/03/27 09:42:16;;;;;;;21.00;15.50;;;;;;;9.19;68.48;103143.13;4990246;28;20120;-90
2022/03/27 09:44:50;;;;;;;19.23;14.32;;;;;;;9.08;67.49;103106.47;5021918;28;20501;-86
2022/03/27 09:47:16;;;;;;;21.60;15.90;;;;;;;9.33;69.05;103117.53;5019334;28;20119;-84
2022/03/27 09:49:48;;;;;;;18.60;14.63;;;;;;;9.61;67.47;103148.34;5009716;28;20159;-87
2022/03/27 09:52:19;;;;;;;21.27;15.43;;;;;;;9.70;67.86;103157.53;5027414;28;20164;-84
2022/03/27 09:54:59;;;;;;;21.55;15.63;;;;;;;9.48;67.15;103124.69;5010939;28;20026;-84
2022/03/27 09:57:32;;;;;;;21.98;15.02;;;;;;;9.47;66.18;103119.59;5025581;28;20466;-84
2022/03/27 10:00:11;;;;;;;20.92;15.65;;;;;;;9.83;66.61;103150.91;5009508;28;20072;-84
2022/03/27 10:03:29;;;;;;;21.67;16.08;;;;;;;9.86;67.53;103148.19;5007477;28;20573;-83
2022/03/27 10:05:57;;;;;;;22.23;16.17;;;;;;;9.79;67.36;103110.47;4926967;29;20058;-85
2022/03/27 10:08:49;;;;;;;;;;;;;;;;;;;;;
2022/03/27 10:11:38;;;;;;;20.77;15.02;;;;;;;9.83;64.44;103096.50;4941008;29;20043;-85
2022/03/27 10:14:05;;;;;;;18.90;13.25;;;;;;;10.08;63.74;103114.44;4935720;29;20031;-83
2022/03/27 10:16:36;;;;;;;21.15;15.30;;;;;;;10.40;63.38;103141.59;4943485;29;20414;-83
2022/03/27 10:19:36;;;;;;;20.02;13.93;;;;;;;10.33;65.58;103101.28;4928392;29;20048;-83
2022/03/27 10:22:02;;;;;;;21.40;15.23;;;;;;;10.47;63.95;103093.72;4924525;29;20040;-83
2022/03/27 10:24:32;;;;;;;20.05;14.35;;;;;;;10.60;62.96;103110.41;4940815;29;20428;-83
2022/03/27 10:27:02;;;;;;;20.27;15.27;;;;;;;10.55;63.07;103102.03;4941062;29;20039;-83
2022/03/27 10:29:29;;;;;;;21.45;15.90;;;;;;;10.70;62.94;103104.81;4942306;29;20301;-83
2022/03/27 10:31:57;;;;;;;20.15;15.02;;;;;;;10.54;62.19;103076.97;4942621;29;20042;-84
2022/03/27 10:34:23;;;;;;;20.05;14.20;;;;;;;10.55;61.91;103073.47;4940337;29;20081;-84
2022/03/27 10:37:11;;;;;;;18.95;13.98;;;;;;;10.97;63.06;103119.13;4984281;28;20500;-83
2022/03/27 10:39:56;;;;;;;19.35;13.18;;;;;;;10.74;60.33;103076.06;5004036;28;20182;-83
2022/03/27 10:42:51;;;;;;;19.88;14.18;;;;;;;11.05;62.15;103111.81;5016226;28;20025;-84
2022/03/27 10:45:19;;;;;;;21.27;14.80;;;;;;;10.85;60.02;103085.94;5012706;28;20302;-83
2022/03/27 10:48:08;;;;;;;19.08;13.93;;;;;;;10.98;60.79;103088.81;5008049;28;20048;-83
2022/03/27 10:50:47;;;;;;;18.83;14.00;;;;;;;11.15;59.04;103118.25;5001403;28;20057;-83
2022/03/27 10:53:13;;;;;;;18.67;13.65;;;;;;;11.08;58.93;103077.91;5005476;28;20040;-83
2022/03/27 10:55:42;;;;;;;20.42;14.52;;;;;;;11.05;58.08;103067.66;5010802;28;20029;-83
2022/03/27 10:58:28;;;;;;;18.75;13.90;;;;;;;11.46;59.67;103105.53;5010750;28;20394;-83
2022/03/27 11:00:53;;;;;;;18.73;13.60;;;;;;;11.38;56.64;103095.53;5009503;28;20083;-83
2022/03/27 11:03:45;;;;;;;18.73;13.30;;;;;;;11.56;57.78;103094.63;5008895;28;20470;-83
2022/03/27 11:06:24;;;;;;;17.95;13.50;;;;;;;11.52;57.89;103084.44;5008306;28;20061;-84
2022/03/27 11:08:51;;;;;;;20.67;14.27;;;;;;;11.60;56.05;103101.38;5017711;28;20032;-83
2022/03/27 11:11:35;;;;;;;18.58;12.95;;;;;;;11.75;57.93;103098.91;5002424;28;20508;-83
2022/03/27 11:14:02;;;;;;;19.00;13.93;;;;;;;11.74;54.79;103094.63;5000338;28;20037;-83
2022/03/27 11:16:27;;;;;;;19.23;13.50;;;;;;;11.78;54.82;103093.56;5007311;28;20260;-83
2022/03/27 11:18:53;;;;;;;17.88;12.82;;;;;;;11.91;54.04;103086.84;5006653;28;20634;-83
2022/03/27 11:21:27;;;;;;;19.77;13.32;;;;;;;12.16;54.43;103102.03;5006692;28;20421;-84
2022/03/27 11:23:55;;;;;;;17.70;12.70;;;;;;;12.14;51.67;103099.50;5017141;28;20025;-84
2022/03/27 11:26:20;;;;;;;16.17;12.93;;;;;;;12.12;52.29;103090.94;5007296;28;20147;-84
2022/03/27 11:28:49;;;;;;;18.95;13.90;;;;;;;11.95;54.07;103046.75;5019167;28;20128;-84
2022/03/27 11:31:28;;;;;;;20.75;14.52;;;;;;;12.08;54.00;103032.19;5027695;28;20033;-83